createdAt,value
2019-03-19T00:09:18.604Z,4.43
2019-03-19T00:12:42.769Z,3.63
2019-03-19T00:16:11.219Z,4.20
2019-03-19T00:19:18.365Z,4.13
2019-03-19T00:32:44.547Z,3.47
2019-03-19T00:42:53.245Z,3.60
2019-03-19T00:46:33.932Z,3.73
2019-03-19T00:49:34.019Z,3.97
2019-03-19T00:52:46.111Z,4.07
2019-03-19T00:55:52.881Z,5.37
2019-03-19T00:58:46.555Z,4.37
2019-03-19T01:02:07.492Z,3.80
2019-03-19T01:11:59.748Z,4.57
2019-03-19T01:18:59.250Z,5.23
2019-03-19T01:28:45.713Z,4.00
2019-03-19T01:31:47.538Z,4.57
2019-03-19T01:38:36.265Z,4.50
2019-03-19T01:41:36.915Z,4.43
2019-03-19T01:47:45.256Z,4.27
2019-03-19T01:50:50.969Z,3.60
2019-03-19T01:57:57.645Z,3.90
2019-03-19T02:01:19.503Z,2.90
2019-03-19T02:04:35.694Z,4.43
2019-03-19T02:07:23.932Z,3.17
2019-03-19T02:17:29.691Z,3.77
2019-03-19T02:20:29.753Z,3.97
2019-03-19T02:26:45.159Z,4.83
2019-03-19T02:30:14.004Z,5.77
2019-03-19T02:33:06.352Z,4.40
2019-03-19T02:36:31.337Z,4.83
2019-03-19T02:39:53.374Z,3.57
2019-03-19T02:42:55.709Z,4.80
2019-03-19T02:52:44.451Z,4.33
2019-03-19T02:56:31.754Z,4.40
2019-03-19T02:59:20.501Z,4.27
2019-03-19T03:02:19.695Z,3.43
2019-03-19T03:05:41.925Z,5.30
2019-03-19T03:08:34.712Z,4.27
2019-03-19T03:11:27.467Z,4.53
2019-03-19T03:14:26.260Z,4.67
2019-03-19T03:17:32.017Z,3.90
2019-03-19T03:20:42.868Z,4.73
2019-03-19T03:24:18.767Z,4.67
2019-03-19T03:27:52.393Z,4.50
2019-03-19T03:34:28.729Z,4.43
2019-03-19T03:38:06.432Z,4.10
2019-03-19T03:41:27.002Z,4.47
2019-03-19T03:44:28.367Z,5.20
2019-03-19T03:47:30.988Z,5.83
2019-03-19T03:53:55.545Z,4.43
2019-03-19T04:07:28.850Z,4.60
2019-03-19T04:13:26.825Z,5.43
2019-03-19T04:16:18.685Z,6.20
2019-03-19T04:27:53.855Z,6.10
2019-03-19T04:30:16.895Z,5.80
2019-03-19T04:33:34.664Z,5.73
2019-03-19T04:36:41.932Z,5.87
2019-03-19T04:42:48.115Z,5.40
2019-03-19T04:49:44.707Z,6.10
2019-03-19T04:52:43.306Z,5.93
2019-03-19T04:59:15.099Z,5.97
2019-03-19T05:02:28.846Z,7.03
2019-03-19T05:05:19.904Z,7.93
2019-03-19T05:08:42.410Z,6.43
2019-03-19T05:14:55.200Z,6.47
2019-03-19T05:18:16.321Z,6.93
2019-03-19T05:21:23.376Z,7.47
2019-03-19T05:24:34.276Z,6.43
2019-03-19T05:31:27.661Z,7.93
2019-03-19T05:37:34.522Z,8.93
2019-03-19T05:40:49.561Z,6.90
2019-03-19T05:43:34.174Z,9.07
2019-03-19T05:47:09.923Z,8.43
2019-03-19T05:50:11.044Z,11.43
2019-03-19T05:53:11.320Z,7.73
2019-03-19T05:56:16.559Z,9.33
2019-03-19T05:58:57.665Z,8.27
2019-03-19T06:02:29.269Z,8.63
2019-03-19T06:05:35.251Z,10.60
2019-03-19T06:08:35.067Z,8.43
2019-03-19T06:12:04.261Z,9.33
2019-03-19T06:15:21.640Z,7.73
2019-03-19T06:24:53.492Z,9.63
2019-03-19T06:28:07.140Z,8.00
2019-03-19T06:31:27.608Z,9.67
2019-03-19T06:38:07.826Z,10.50
2019-03-19T06:41:06.090Z,10.17
2019-03-19T06:44:32.180Z,10.47
2019-03-19T06:47:18.331Z,9.63
2019-03-19T06:54:26.505Z,11.30
2019-03-19T07:01:20.820Z,10.37
2019-03-19T07:04:26.215Z,10.87
2019-03-19T07:07:48.760Z,12.20
2019-03-19T07:10:54.503Z,11.00
2019-03-19T07:14:09.292Z,11.50
2019-03-19T07:17:16.320Z,11.53
2019-03-19T07:24:00.116Z,10.80
2019-03-19T07:27:17.371Z,10.53
2019-03-19T07:30:46.469Z,8.77
2019-03-19T07:33:28.454Z,8.97
2019-03-19T07:40:09.680Z,9.27
2019-03-19T07:43:11.673Z,9.03
2019-03-19T07:46:45.793Z,8.97
2019-03-19T07:49:37.863Z,8.57
2019-03-19T07:52:51.801Z,7.40
2019-03-19T07:56:06.091Z,8.13
2019-03-19T07:59:24.341Z,7.40
2019-03-19T08:05:39.300Z,7.70
2019-03-19T08:08:47.325Z,7.87
2019-03-19T08:11:57.587Z,7.37
2019-03-19T08:15:06.370Z,8.43
2019-03-19T08:18:08.072Z,6.83
2019-03-19T08:24:28.398Z,6.80
2019-03-19T08:27:53.881Z,7.63
2019-03-19T08:30:47.522Z,6.27
2019-03-19T08:33:40.283Z,6.43
2019-03-19T08:40:23.762Z,6.03
2019-03-19T08:46:58.511Z,6.00
2019-03-19T08:50:22.565Z,6.20
2019-03-19T08:53:26.688Z,5.67
2019-03-19T09:00:47.306Z,5.27
2019-03-19T09:07:04.177Z,6.83
2019-03-19T09:10:06.967Z,5.17
2019-03-19T09:14:06.101Z,4.53
2019-03-19T09:16:54.975Z,5.90
2019-03-19T09:23:21.827Z,4.07
2019-03-19T09:26:24.393Z,4.80
2019-03-19T09:29:16.754Z,4.23
2019-03-19T09:43:03.158Z,2.73
2019-03-19T09:46:13.393Z,2.10
2019-03-19T09:53:31.177Z,2.43
2019-03-19T10:12:39.528Z,3.40
2019-03-19T10:20:17.562Z,2.20
2019-03-19T10:23:50.088Z,2.03
2019-03-19T10:26:32.529Z,2.17
2019-03-19T10:32:41.481Z,2.80
2019-03-19T10:39:55.617Z,3.27
2019-03-19T10:43:10.832Z,2.10
2019-03-19T10:46:55.569Z,1.80
2019-03-19T10:53:45.789Z,1.97
2019-03-19T10:56:33.789Z,1.50
2019-03-19T10:59:49.104Z,1.57
2019-03-19T11:02:47.113Z,1.93
2019-03-19T11:09:09.339Z,1.50
2019-03-19T11:12:15.912Z,2.53
2019-03-19T11:22:11.082Z,2.60
2019-03-19T11:25:15.039Z,1.60
2019-03-19T11:28:54.574Z,1.67
2019-03-19T11:31:42.563Z,1.80
2019-03-19T11:34:43.647Z,1.47
2019-03-19T11:41:31.831Z,1.07
2019-03-19T11:47:38.856Z,1.90
2019-03-19T11:54:12.319Z,1.87
2019-03-19T11:57:41.893Z,2.17
2019-03-19T12:05:10.626Z,1.60
2019-03-19T12:07:31.946Z,1.77
2019-03-19T12:17:32.043Z,1.67
2019-03-19T12:23:58.874Z,1.93
2019-03-19T12:30:04.623Z,1.73
2019-03-19T12:33:12.353Z,1.97
2019-03-19T12:36:20.559Z,1.83
2019-03-19T12:39:04.688Z,1.17
2019-03-19T12:42:27.123Z,1.67
2019-03-19T12:48:58.570Z,1.53
2019-03-19T12:56:04.276Z,1.67
2019-03-19T13:05:36.585Z,2.03
2019-03-19T13:08:31.883Z,2.30
2019-03-19T13:11:55.944Z,1.87
2019-03-19T13:14:42.199Z,1.93
2019-03-19T13:18:04.542Z,2.23
2019-03-19T13:21:19.841Z,1.87
2019-03-19T13:24:39.137Z,2.00
2019-03-19T13:27:32.269Z,1.80
2019-03-19T13:30:49.883Z,2.43
2019-03-19T13:34:14.016Z,3.23
2019-03-19T13:37:30.203Z,2.20
2019-03-19T13:40:37.457Z,1.80
2019-03-19T13:43:57.498Z,1.97
2019-03-19T13:47:34.400Z,2.40
2019-03-19T13:50:58.751Z,1.93
2019-03-19T13:53:54.789Z,1.87
2019-03-19T13:57:02.723Z,1.97
2019-03-19T13:59:50.733Z,2.30
2019-03-19T14:06:41.310Z,2.07
2019-03-19T14:09:42.282Z,2.13
2019-03-19T14:13:04.778Z,2.30
2019-03-19T14:19:45.318Z,2.53
2019-03-19T14:22:38.230Z,2.33
2019-03-19T14:32:16.922Z,2.00
2019-03-19T14:35:18.096Z,3.10
2019-03-19T14:38:46.707Z,2.27
2019-03-19T14:42:12.332Z,1.50
2019-03-19T14:44:58.520Z,1.90
2019-03-19T14:48:16.310Z,1.87
2019-03-19T14:55:19.845Z,1.57
2019-03-19T14:58:22.245Z,2.27
2019-03-19T15:01:18.922Z,1.53
2019-03-19T15:04:38.553Z,1.93
2019-03-19T15:11:41.844Z,1.90
2019-03-19T15:15:16.563Z,2.13
2019-03-19T15:29:53.965Z,1.73
2019-03-19T15:40:15.739Z,2.20
2019-03-19T15:43:35.702Z,1.77
2019-03-19T15:50:24.303Z,2.53
2019-03-19T15:53:34.579Z,1.93
2019-03-19T15:57:30.372Z,2.70
2019-03-19T16:06:46.805Z,2.00
2019-03-19T16:09:48.051Z,2.57
2019-03-19T16:16:19.964Z,1.60
2019-03-19T16:19:40.844Z,2.80
2019-03-19T16:26:07.054Z,2.93
2019-03-19T16:29:22.716Z,2.10
2019-03-19T16:32:39.238Z,1.93
2019-03-19T16:35:37.919Z,2.27
2019-03-19T16:38:17.469Z,2.50
2019-03-19T16:41:43.286Z,2.20
2019-03-19T16:48:47.546Z,2.30
2019-03-19T16:51:34.403Z,3.10
2019-03-19T16:58:12.883Z,2.80
2019-03-19T17:04:25.585Z,3.00
2019-03-19T17:07:55.735Z,3.17
2019-03-19T17:11:16.414Z,3.33
2019-03-19T17:18:00.343Z,2.90
2019-03-19T17:21:16.084Z,2.30
2019-03-19T17:24:15.240Z,3.87
2019-03-19T17:31:04.962Z,3.10
2019-03-19T17:34:00.523Z,3.00
2019-03-19T17:36:59.475Z,2.40
2019-03-19T17:40:50.047Z,2.43
2019-03-19T17:46:49.445Z,2.73
2019-03-19T17:49:52.883Z,2.77
2019-03-19T17:56:16.702Z,3.13
2019-03-19T17:59:33.844Z,3.20
2019-03-19T18:02:46.299Z,3.10
2019-03-19T18:06:06.676Z,2.80
2019-03-19T18:09:29.184Z,3.73
2019-03-19T18:12:20.903Z,2.70
2019-03-19T18:28:40.665Z,2.63
2019-03-19T18:32:09.773Z,2.40
2019-03-19T18:42:20.740Z,2.77
2019-03-19T18:45:45.569Z,2.90
2019-03-19T18:52:38.865Z,3.03
2019-03-19T19:02:05.666Z,2.93
2019-03-19T19:04:46.573Z,3.30
2019-03-19T19:07:50.451Z,3.07
2019-03-19T19:10:34.009Z,3.07
2019-03-19T19:13:34.981Z,2.83
2019-03-19T19:16:45.537Z,2.73
2019-03-19T19:20:02.820Z,2.90
2019-03-19T19:23:23.046Z,3.27
2019-03-19T19:26:50.682Z,3.63
2019-03-19T19:32:47.179Z,3.80
2019-03-19T19:35:30.923Z,3.57
2019-03-19T19:38:55.643Z,4.87
2019-03-19T19:42:17.854Z,4.50
2019-03-19T19:48:37.498Z,4.27
2019-03-19T19:58:11.790Z,4.37
2019-03-19T20:04:17.121Z,4.17
2019-03-19T20:07:47.464Z,3.53
2019-03-19T20:11:26.417Z,5.10
2019-03-19T20:14:56.420Z,5.60
2019-03-19T20:18:26.578Z,6.33
2019-03-19T20:29:14.691Z,9.47
2019-03-19T20:32:25.165Z,7.90
2019-03-19T20:35:24.877Z,8.60
2019-03-19T20:38:56.086Z,11.17
2019-03-19T20:42:03.427Z,6.00
2019-03-19T20:51:30.988Z,4.70
2019-03-19T20:54:39.885Z,5.23
2019-03-19T21:01:42.829Z,5.37
2019-03-19T21:04:56.832Z,5.27
2019-03-19T21:14:18.039Z,5.30
2019-03-19T21:17:30.536Z,6.07
2019-03-19T21:24:10.992Z,5.10
2019-03-19T21:26:36.186Z,6.50
2019-03-19T21:29:24.811Z,5.87
2019-03-19T21:35:58.030Z,6.50
2019-03-19T21:39:15.737Z,4.63
2019-03-19T21:42:32.763Z,5.93
2019-03-19T21:45:37.768Z,5.90
2019-03-19T21:48:24.169Z,6.27
2019-03-19T21:51:17.506Z,7.70
2019-03-19T21:54:05.227Z,5.30
2019-03-19T21:57:34.975Z,6.53
2019-03-19T22:00:41.806Z,6.93
2019-03-19T22:04:03.621Z,5.57
2019-03-19T22:07:22.958Z,5.80
2019-03-19T22:10:13.208Z,6.23
2019-03-19T22:23:26.983Z,5.00
2019-03-19T22:26:18.677Z,7.07
2019-03-19T22:33:18.396Z,7.37
2019-03-19T22:36:51.062Z,6.03
2019-03-19T22:40:10.426Z,6.87
2019-03-19T22:46:21.856Z,9.17
2019-03-19T22:49:42.351Z,6.93
2019-03-19T22:52:36.405Z,6.97
2019-03-19T22:55:34.236Z,6.40
2019-03-19T22:58:50.627Z,9.23
2019-03-19T23:01:53.316Z,9.27
2019-03-19T23:05:00.327Z,10.23
2019-03-19T23:15:38.706Z,9.93
2019-03-19T23:22:04.682Z,8.67
2019-03-19T23:24:47.081Z,9.00
2019-03-19T23:27:54.656Z,9.27
2019-03-19T23:31:10.987Z,9.17
2019-03-19T23:34:26.857Z,8.30
2019-03-19T23:40:57.558Z,8.40
2019-03-19T23:46:54.721Z,8.60
2019-03-19T23:49:43.482Z,8.17
2019-03-19T23:52:38.804Z,8.80
2019-03-19T23:56:18.367Z,7.50
2019-03-19T23:59:09.152Z,8.00
